createdAt,value
2022-12-03T00:01:42.413Z,3.81
2022-12-03T00:03:45.327Z,3.86
2022-12-03T00:05:49.108Z,3.89
2022-12-03T00:07:52.143Z,3.77
2022-12-03T00:09:54.953Z,3.76
2022-12-03T00:11:57.757Z,3.81
2022-12-03T00:14:00.579Z,3.88
2022-12-03T00:16:05.017Z,3.83
2022-12-03T00:18:07.819Z,3.85
2022-12-03T00:20:18.147Z,3.90
2022-12-03T00:22:20.958Z,3.82
2022-12-03T00:24:23.748Z,3.82
2022-12-03T00:26:26.592Z,3.70
2022-12-03T00:28:29.556Z,3.74
2022-12-03T00:30:32.322Z,3.68
2022-12-03T00:32:36.741Z,3.75
2022-12-03T00:34:39.523Z,3.66
2022-12-03T00:36:42.285Z,3.70
2022-12-03T00:38:45.159Z,3.69
2022-12-03T00:40:47.873Z,3.79
2022-12-03T00:42:50.670Z,3.80
2022-12-03T00:44:53.689Z,3.76
2022-12-03T00:46:56.733Z,3.74
2022-12-03T00:49:03.515Z,3.72
2022-12-03T00:51:06.516Z,3.72
2022-12-03T00:53:09.315Z,3.72
2022-12-03T00:55:12.167Z,3.64
2022-12-03T00:57:14.975Z,3.55
2022-12-03T00:59:17.745Z,3.71
2022-12-03T01:01:20.555Z,3.69
2022-12-03T01:03:23.397Z,3.69
2022-12-03T01:05:27.516Z,3.74
2022-12-03T01:07:30.380Z,3.78
2022-12-03T01:09:33.472Z,3.72
2022-12-03T01:11:39.264Z,3.73
2022-12-03T01:13:42.011Z,3.78
2022-12-03T01:15:44.891Z,3.78
2022-12-03T01:17:47.727Z,3.83
2022-12-03T01:19:52.432Z,3.83
2022-12-03T01:21:56.853Z,3.89
2022-12-03T01:24:00.826Z,3.88
2022-12-03T01:26:03.589Z,3.70
2022-12-03T01:28:06.294Z,3.77
2022-12-03T01:30:10.668Z,3.69
2022-12-03T01:32:19.336Z,3.67
2022-12-03T01:34:22.309Z,3.66
2022-12-03T01:36:25.088Z,3.76
2022-12-03T01:38:29.198Z,3.69
2022-12-03T01:40:31.998Z,3.68
2022-12-03T01:42:37.748Z,3.72
2022-12-03T01:44:41.832Z,3.68
2022-12-03T01:46:45.928Z,3.72
2022-12-03T01:48:50.038Z,3.64
2022-12-03T01:50:53.819Z,3.68
2022-12-03T01:52:59.711Z,3.67
2022-12-03T01:55:07.355Z,3.70
2022-12-03T01:57:20.600Z,3.72
2022-12-03T01:59:31.411Z,3.80
2022-12-03T02:01:34.408Z,3.71
2022-12-03T02:03:37.587Z,3.78
2022-12-03T02:05:41.498Z,3.82
2022-12-03T02:07:44.938Z,3.90
2022-12-03T02:09:48.208Z,3.86
2022-12-03T02:11:53.363Z,3.80
2022-12-03T02:14:00.442Z,3.90
2022-12-03T02:16:04.480Z,3.82
2022-12-03T02:18:08.941Z,3.82
2022-12-03T02:20:14.405Z,3.83
2022-12-03T02:22:26.369Z,3.81
2022-12-03T02:24:38.293Z,3.86
2022-12-03T02:26:42.415Z,3.93
2022-12-03T02:28:45.190Z,3.84
2022-12-03T02:30:48.061Z,3.75
2022-12-03T02:32:51.858Z,3.78
2022-12-03T02:34:54.873Z,3.88
2022-12-03T02:36:57.981Z,3.92
2022-12-03T02:39:01.501Z,3.88
2022-12-03T02:41:07.597Z,3.93
2022-12-03T02:43:14.699Z,4.05
2022-12-03T02:45:22.093Z,4.05
2022-12-03T02:47:24.975Z,3.98
2022-12-03T02:49:27.918Z,3.94
2022-12-03T02:51:30.746Z,4.01
2022-12-03T02:53:38.529Z,3.96
2022-12-03T02:55:42.698Z,4.00
2022-12-03T02:57:47.058Z,3.96
2022-12-03T02:59:51.971Z,3.91
2022-12-03T03:01:54.979Z,3.91
2022-12-03T03:03:58.637Z,3.94
2022-12-03T03:06:03.217Z,3.91
2022-12-03T03:08:07.360Z,3.95
2022-12-03T03:10:15.410Z,3.89
2022-12-03T03:12:18.262Z,3.86
2022-12-03T03:14:21.002Z,3.99
2022-12-03T03:16:25.279Z,3.93
2022-12-03T03:18:28.212Z,3.90
2022-12-03T03:20:31.067Z,3.96
2022-12-03T03:22:34.296Z,3.92
2022-12-03T03:24:37.214Z,3.88
2022-12-03T03:26:40.020Z,3.93
2022-12-03T03:28:46.575Z,3.93
2022-12-03T03:30:49.572Z,4.00
2022-12-03T03:32:53.788Z,3.93
2022-12-03T03:34:57.014Z,3.96
2022-12-03T03:36:59.978Z,3.97
2022-12-03T03:39:03.293Z,3.88
2022-12-03T03:41:09.087Z,3.80
2022-12-03T03:43:13.201Z,3.83
2022-12-03T03:45:16.365Z,3.92
2022-12-03T03:47:20.043Z,3.88
2022-12-03T03:49:24.546Z,3.93
2022-12-03T03:51:27.580Z,3.94
2022-12-03T03:53:31.384Z,3.90
2022-12-03T03:55:35.448Z,3.87
2022-12-03T03:57:38.924Z,3.94
2022-12-03T03:59:42.303Z,3.98
2022-12-03T04:01:45.507Z,3.91
2022-12-03T04:03:48.343Z,3.92
2022-12-03T04:05:52.540Z,3.96
2022-12-03T04:07:55.558Z,4.02
2022-12-03T04:09:58.438Z,3.96
2022-12-03T04:12:19.242Z,3.92
2022-12-03T04:14:22.062Z,3.96
2022-12-03T04:16:24.955Z,4.09
2022-12-03T04:18:45.701Z,4.02
2022-12-03T04:20:48.476Z,3.97
2022-12-03T04:22:51.599Z,4.01
2022-12-03T04:25:15.140Z,4.03
2022-12-03T04:27:35.423Z,4.05
2022-12-03T04:29:37.390Z,4.02
2022-12-03T04:31:58.431Z,4.11
2022-12-03T04:34:18.975Z,4.02
2022-12-03T04:36:21.768Z,4.02
2022-12-03T04:38:25.881Z,4.08
2022-12-03T04:40:47.259Z,3.97
2022-12-03T04:42:50.065Z,4.00
2022-12-03T04:44:53.086Z,4.04
2022-12-03T04:46:56.087Z,4.01
2022-12-03T04:49:00.023Z,3.98
2022-12-03T04:51:02.804Z,4.04
2022-12-03T04:53:05.605Z,4.04
2022-12-03T04:55:10.345Z,3.94
2022-12-03T04:57:13.402Z,3.93
2022-12-03T04:59:16.765Z,3.97
2022-12-03T05:01:19.753Z,4.10
2022-12-03T05:03:22.550Z,4.13
2022-12-03T05:05:25.397Z,4.08
2022-12-03T05:07:28.288Z,4.15
2022-12-03T05:09:31.176Z,3.99
2022-12-03T05:11:34.350Z,3.94
2022-12-03T05:13:37.488Z,4.05
2022-12-03T05:15:40.381Z,4.04
2022-12-03T05:17:43.125Z,4.10
2022-12-03T05:20:03.331Z,3.89
2022-12-03T05:22:06.145Z,4.01
2022-12-03T05:24:09.214Z,3.91
2022-12-03T05:26:12.018Z,3.79
2022-12-03T05:28:16.285Z,3.74
2022-12-03T05:30:19.067Z,3.75
2022-12-03T05:32:22.052Z,3.81
2022-12-03T05:34:24.898Z,3.90
2022-12-03T05:36:27.668Z,3.80
2022-12-03T05:38:30.460Z,3.98
2022-12-03T05:40:33.315Z,3.84
2022-12-03T05:42:53.588Z,3.84
2022-12-03T05:44:57.690Z,3.88
2022-12-03T05:47:00.427Z,3.95
2022-12-03T05:49:03.220Z,3.89
2022-12-03T05:51:06.032Z,3.91
2022-12-03T05:53:08.822Z,3.82
2022-12-03T05:55:12.770Z,3.88
2022-12-03T05:57:15.565Z,3.90
2022-12-03T05:59:18.367Z,3.83
2022-12-03T06:01:22.568Z,3.90
2022-12-03T06:03:25.439Z,3.84
2022-12-03T06:05:28.335Z,3.89
2022-12-03T06:07:31.136Z,3.93
2022-12-03T06:09:33.949Z,3.88
2022-12-03T06:11:37.213Z,3.91
2022-12-03T06:13:40.033Z,3.89
2022-12-03T06:15:44.154Z,3.96
2022-12-03T06:17:48.903Z,3.90
2022-12-03T06:19:51.769Z,3.79
2022-12-03T06:21:55.398Z,3.75
2022-12-03T06:23:58.182Z,3.72
2022-12-03T06:26:00.928Z,3.68
2022-12-03T06:28:03.808Z,3.66
2022-12-03T06:30:08.859Z,3.65
2022-12-03T06:32:11.677Z,3.65
2022-12-03T06:34:15.831Z,3.66
2022-12-03T06:36:22.743Z,3.60
2022-12-03T06:38:26.090Z,3.50
2022-12-03T06:40:28.834Z,3.62
2022-12-03T06:42:31.638Z,3.61
2022-12-03T06:44:34.511Z,3.56
2022-12-03T06:46:37.591Z,3.56
2022-12-03T06:48:40.339Z,3.70
2022-12-03T06:50:44.451Z,3.61
2022-12-03T06:52:47.385Z,3.67
2022-12-03T06:54:50.135Z,3.76
2022-12-03T06:56:52.880Z,3.61
2022-12-03T06:58:55.915Z,3.58
2022-12-03T07:00:58.921Z,3.58
2022-12-03T07:03:01.786Z,3.58
2022-12-03T07:05:05.202Z,3.71
2022-12-03T07:07:09.277Z,3.73
2022-12-03T07:09:12.028Z,3.70
2022-12-03T07:11:28.682Z,3.87
2022-12-03T07:13:31.454Z,3.71
2022-12-03T07:15:34.273Z,3.80
2022-12-03T07:17:37.052Z,3.73
2022-12-03T07:19:39.844Z,3.73
2022-12-03T07:21:42.896Z,3.77
2022-12-03T07:23:48.186Z,3.82
2022-12-03T07:25:50.898Z,3.91
2022-12-03T07:27:53.684Z,3.83
2022-12-03T07:29:56.429Z,3.70
2022-12-03T07:31:59.217Z,3.65
2022-12-03T07:34:03.711Z,3.61
2022-12-03T07:36:06.962Z,3.66
2022-12-03T07:38:09.764Z,3.75
2022-12-03T07:40:14.664Z,3.66
2022-12-03T07:42:17.422Z,3.57
2022-12-03T07:44:20.210Z,3.56
2022-12-03T07:46:23.247Z,3.66
2022-12-03T07:48:26.137Z,3.75
2022-12-03T07:50:28.937Z,3.67
2022-12-03T07:52:31.698Z,3.67
2022-12-03T07:54:34.440Z,3.59
2022-12-03T07:56:38.579Z,3.52
2022-12-03T07:58:41.406Z,3.61
2022-12-03T08:00:44.201Z,3.62
2022-12-03T08:02:47.385Z,3.53
2022-12-03T08:04:50.266Z,3.55
2022-12-03T08:06:53.057Z,3.59
2022-12-03T08:08:55.848Z,3.70
2022-12-03T08:10:58.614Z,3.72
2022-12-03T08:13:07.643Z,3.66
2022-12-03T08:15:15.775Z,3.69
2022-12-03T08:17:19.766Z,3.78
2022-12-03T08:19:22.749Z,3.71
2022-12-03T08:21:25.524Z,3.83
2022-12-03T08:23:28.826Z,3.71
2022-12-03T08:25:33.704Z,3.74
2022-12-03T08:27:36.307Z,3.71
2022-12-03T08:29:40.411Z,3.71
2022-12-03T08:31:48.070Z,3.79
2022-12-03T08:33:53.409Z,3.69
2022-12-03T08:35:56.383Z,3.65
2022-12-03T08:38:02.597Z,3.65
2022-12-03T08:40:21.451Z,3.82
2022-12-03T08:42:44.105Z,4.01
2022-12-03T08:44:48.713Z,4.02
2022-12-03T08:46:55.111Z,3.97
2022-12-03T08:48:57.964Z,3.95
2022-12-03T08:51:04.698Z,3.95
2022-12-03T08:53:24.436Z,4.04
2022-12-03T08:55:35.099Z,3.88
2022-12-03T08:57:37.969Z,3.80
2022-12-03T08:59:45.307Z,3.90
2022-12-03T09:01:50.266Z,3.86
2022-12-03T09:03:55.140Z,3.79
2022-12-03T09:05:57.814Z,3.70
2022-12-03T09:08:00.752Z,3.79
2022-12-03T09:10:03.654Z,4.05
2022-12-03T09:12:06.966Z,3.89
2022-12-03T09:14:15.118Z,3.84
2022-12-03T09:16:21.058Z,3.95
2022-12-03T09:18:25.338Z,3.93
2022-12-03T09:20:28.170Z,3.89
2022-12-03T09:22:30.946Z,3.90
2022-12-03T09:24:33.714Z,4.01
2022-12-03T09:26:37.278Z,4.09
2022-12-03T09:28:40.078Z,4.10
2022-12-03T09:30:42.931Z,4.20
2022-12-03T09:32:45.755Z,4.18
2022-12-03T09:34:49.903Z,4.14
2022-12-03T09:36:52.683Z,4.18
2022-12-03T09:38:55.476Z,4.12
2022-12-03T09:40:58.320Z,4.08
2022-12-03T09:43:01.089Z,4.24
2022-12-03T09:45:10.686Z,4.18
2022-12-03T09:47:38.388Z,4.34
2022-12-03T09:49:41.666Z,4.21
2022-12-03T09:51:46.786Z,4.18
2022-12-03T09:53:49.699Z,4.30
2022-12-03T09:55:53.088Z,4.31
2022-12-03T09:57:57.669Z,4.48
2022-12-03T10:00:01.185Z,4.58
2022-12-03T10:02:04.605Z,4.45
2022-12-03T10:04:08.014Z,4.48
2022-12-03T10:06:14.826Z,4.54
2022-12-03T10:08:21.852Z,4.52
2022-12-03T10:10:25.526Z,4.51
2022-12-03T10:12:30.277Z,4.61
2022-12-03T10:14:33.375Z,4.72
2022-12-03T10:16:39.536Z,4.57
2022-12-03T10:18:47.195Z,4.59
2022-12-03T10:20:50.644Z,4.71
2022-12-03T10:22:53.477Z,4.67
2022-12-03T10:25:09.872Z,4.64
2022-12-03T10:27:23.161Z,4.57
2022-12-03T10:29:33.218Z,4.52
2022-12-03T10:31:37.412Z,4.62
2022-12-03T10:33:44.629Z,4.76
2022-12-03T10:35:47.723Z,4.75
2022-12-03T10:38:01.119Z,4.77
2022-12-03T10:40:09.211Z,4.76
2022-12-03T10:42:15.890Z,4.71
2022-12-03T10:44:20.569Z,4.66
2022-12-03T10:46:24.018Z,4.71
2022-12-03T10:48:27.482Z,4.69
2022-12-03T10:50:30.445Z,4.75
2022-12-03T10:52:33.708Z,4.83
2022-12-03T10:54:36.748Z,4.75
2022-12-03T10:56:41.280Z,4.78
2022-12-03T10:58:44.158Z,4.78
2022-12-03T11:00:46.989Z,4.95
2022-12-03T11:02:56.443Z,4.95
2022-12-03T11:04:59.794Z,5.08
2022-12-03T11:07:03.405Z,5.19
2022-12-03T11:09:09.033Z,5.11
2022-12-03T11:11:19.205Z,5.03
2022-12-03T11:13:44.482Z,5.03
2022-12-03T11:15:47.431Z,5.07
2022-12-03T11:17:51.472Z,4.97
2022-12-03T11:19:54.513Z,5.04
2022-12-03T11:22:18.399Z,5.09
2022-12-03T11:24:21.899Z,4.93
2022-12-03T11:26:58.154Z,5.00
2022-12-03T11:29:02.371Z,5.03
2022-12-03T11:31:12.187Z,5.09
2022-12-03T11:33:23.257Z,5.24
2022-12-03T11:35:29.672Z,5.24
2022-12-03T11:37:32.630Z,5.09
2022-12-03T11:40:00.026Z,5.05
2022-12-03T11:42:30.798Z,5.02
2022-12-03T11:44:35.163Z,4.99
2022-12-03T11:46:44.449Z,4.99
2022-12-03T11:48:48.807Z,5.01
2022-12-03T11:50:53.294Z,5.02
2022-12-03T11:53:00.823Z,5.01
2022-12-03T11:55:15.269Z,5.05
2022-12-03T11:57:27.432Z,5.13
2022-12-03T11:59:30.225Z,5.17
2022-12-03T12:01:38.928Z,5.08
2022-12-03T12:03:44.993Z,5.11
2022-12-03T12:05:47.988Z,5.08
2022-12-03T12:07:51.760Z,5.11
2022-12-03T12:09:57.148Z,5.12
2022-12-03T12:12:36.105Z,5.17
2022-12-03T12:14:38.948Z,5.10
2022-12-03T12:16:51.960Z,5.22
2022-12-03T12:18:55.562Z,5.23
2022-12-03T12:21:32.385Z,5.30
2022-12-03T12:23:35.311Z,5.40
2022-12-03T12:25:41.408Z,5.48
2022-12-03T12:27:45.467Z,5.51
2022-12-03T12:29:53.913Z,5.57
2022-12-03T12:32:12.067Z,5.46
2022-12-03T12:34:15.305Z,5.44
2022-12-03T12:36:18.127Z,5.35
2022-12-03T12:38:24.394Z,5.43
2022-12-03T12:40:29.218Z,5.58
2022-12-03T12:42:35.476Z,5.43
2022-12-03T12:44:38.380Z,5.36
2022-12-03T12:46:49.428Z,5.39
2022-12-03T12:48:59.425Z,5.49
2022-12-03T12:51:10.726Z,5.43
2022-12-03T12:53:21.235Z,5.44
2022-12-03T12:55:25.212Z,5.44
2022-12-03T12:57:27.954Z,5.53
2022-12-03T12:59:30.777Z,5.39
2022-12-03T13:01:35.520Z,5.45
2022-12-03T13:03:39.842Z,5.32
2022-12-03T13:05:47.870Z,5.36
2022-12-03T13:07:53.564Z,5.32
2022-12-03T13:09:57.027Z,5.40
2022-12-03T13:12:03.775Z,5.56
2022-12-03T13:14:13.369Z,5.58
2022-12-03T13:16:20.553Z,5.64
2022-12-03T13:18:27.966Z,5.57
2022-12-03T13:20:30.699Z,5.49
2022-12-03T13:22:34.964Z,5.41
2022-12-03T13:24:39.946Z,5.33
2022-12-03T13:26:42.798Z,5.40
2022-12-03T13:28:45.621Z,5.43
2022-12-03T13:30:48.431Z,5.47
2022-12-03T13:32:51.219Z,5.42
2022-12-03T13:34:57.136Z,5.30
2022-12-03T13:37:01.539Z,5.24
2022-12-03T13:39:16.561Z,5.27
2022-12-03T13:41:39.217Z,5.50
2022-12-03T13:43:44.583Z,5.55
2022-12-03T13:45:50.222Z,5.60
2022-12-03T13:47:56.991Z,5.55
2022-12-03T13:50:04.219Z,5.50
2022-12-03T13:52:12.757Z,5.41
2022-12-03T13:54:22.260Z,5.51
2022-12-03T13:56:29.028Z,5.43
2022-12-03T13:58:31.870Z,5.41
2022-12-03T14:00:34.786Z,5.41
2022-12-03T14:02:37.706Z,5.40
2022-12-03T14:04:40.944Z,5.35
2022-12-03T14:06:43.732Z,5.51
2022-12-03T14:08:46.584Z,5.45
2022-12-03T14:10:55.516Z,5.36
2022-12-03T14:13:00.814Z,5.47
2022-12-03T14:15:05.843Z,5.51
2022-12-03T14:17:09.533Z,5.47
2022-12-03T14:19:12.962Z,5.27
2022-12-03T14:21:15.954Z,5.24
2022-12-03T14:23:21.603Z,5.24
2022-12-03T14:25:24.464Z,5.27
2022-12-03T14:27:28.668Z,5.46
2022-12-03T14:29:31.517Z,5.44
2022-12-03T14:31:35.475Z,5.37
2022-12-03T14:33:38.368Z,5.39
2022-12-03T14:35:41.246Z,5.38
2022-12-03T14:37:44.119Z,5.38
2022-12-03T14:39:48.895Z,5.43
2022-12-03T14:42:09.055Z,5.52
2022-12-03T14:44:13.263Z,5.45
2022-12-03T14:46:16.164Z,5.50
2022-12-03T14:48:19.100Z,5.35
2022-12-03T14:50:21.999Z,5.16
2022-12-03T14:52:24.933Z,5.27
2022-12-03T14:54:27.915Z,5.27
2022-12-03T14:56:30.784Z,5.43
2022-12-03T14:58:34.206Z,5.41
2022-12-03T15:00:38.351Z,5.49
2022-12-03T15:02:41.199Z,5.39
2022-12-03T15:04:44.095Z,5.24
2022-12-03T15:06:47.258Z,5.17
2022-12-03T15:08:50.107Z,5.18
2022-12-03T15:10:52.903Z,5.30
2022-12-03T15:12:55.864Z,5.29
2022-12-03T15:14:58.671Z,5.21
2022-12-03T15:17:03.210Z,5.34
2022-12-03T15:19:06.146Z,5.27
2022-12-03T15:21:09.141Z,5.19
2022-12-03T15:23:14.484Z,5.24
2022-12-03T15:25:24.176Z,5.30
2022-12-03T15:27:27.475Z,5.23
2022-12-03T15:29:30.739Z,5.19
2022-12-03T15:31:33.669Z,5.23
2022-12-03T15:33:37.948Z,5.36
2022-12-03T15:35:42.467Z,5.24
2022-12-03T15:37:45.364Z,5.17
2022-12-03T15:39:48.951Z,5.10
2022-12-03T15:41:52.210Z,5.22
2022-12-03T15:43:55.032Z,5.20
2022-12-03T15:45:57.973Z,5.37
2022-12-03T15:48:01.234Z,5.33
2022-12-03T15:50:06.522Z,5.22
2022-12-03T15:52:09.360Z,5.09
2022-12-03T15:54:13.124Z,5.06
2022-12-03T15:56:16.120Z,5.09
2022-12-03T15:58:19.084Z,5.20
2022-12-03T16:00:22.503Z,5.23
2022-12-03T16:02:25.760Z,5.32
2022-12-03T16:04:28.690Z,5.21
2022-12-03T16:06:32.905Z,5.15
2022-12-03T16:08:35.817Z,5.35
2022-12-03T16:10:39.986Z,5.17
2022-12-03T16:12:42.785Z,5.15
2022-12-03T16:14:45.629Z,5.10
2022-12-03T16:16:48.699Z,5.17
2022-12-03T16:18:51.522Z,5.08
2022-12-03T16:20:54.340Z,5.05
2022-12-03T16:22:58.527Z,5.13
2022-12-03T16:25:03.133Z,5.02
2022-12-03T16:27:06.127Z,5.12
2022-12-03T16:29:08.929Z,5.07
2022-12-03T16:31:11.773Z,5.08
2022-12-03T16:33:14.921Z,5.09
2022-12-03T16:35:17.878Z,5.12
2022-12-03T16:37:35.869Z,4.97
2022-12-03T16:39:40.149Z,4.88
2022-12-03T16:41:44.406Z,4.89
2022-12-03T16:43:48.507Z,4.97
2022-12-03T16:46:20.245Z,5.15
2022-12-03T16:48:24.058Z,5.04
2022-12-03T16:50:29.926Z,5.19
2022-12-03T16:52:33.158Z,5.22
2022-12-03T16:54:35.978Z,5.12
2022-12-03T16:56:40.116Z,5.09
2022-12-03T16:58:42.957Z,5.09
2022-12-03T17:00:45.767Z,5.11
2022-12-03T17:02:49.210Z,5.12
2022-12-03T17:04:52.079Z,5.09
2022-12-03T17:06:54.811Z,5.23
2022-12-03T17:08:57.632Z,5.14
2022-12-03T17:11:00.424Z,5.11
2022-12-03T17:13:11.717Z,5.12
2022-12-03T17:15:14.731Z,5.03
2022-12-03T17:17:17.521Z,5.15
2022-12-03T17:19:20.384Z,5.23
2022-12-03T17:21:23.269Z,5.18
2022-12-03T17:23:26.108Z,5.14
2022-12-03T17:25:29.319Z,5.00
2022-12-03T17:27:32.100Z,5.01
2022-12-03T17:29:36.326Z,4.99
2022-12-03T17:31:42.173Z,5.03
2022-12-03T17:33:46.778Z,5.12
2022-12-03T17:35:49.602Z,5.11
2022-12-03T17:37:52.411Z,5.23
2022-12-03T17:39:57.945Z,5.59
2022-12-03T17:42:00.714Z,5.82
2022-12-03T17:44:09.711Z,5.64
2022-12-03T17:46:15.149Z,5.39
2022-12-03T17:48:18.082Z,5.43
2022-12-03T17:50:22.156Z,5.23
2022-12-03T17:52:25.219Z,5.22
2022-12-03T17:54:43.468Z,5.20
2022-12-03T17:56:51.088Z,5.10
2022-12-03T17:58:53.951Z,5.25
2022-12-03T18:01:02.054Z,5.17
2022-12-03T18:03:07.131Z,5.04
2022-12-03T18:05:10.978Z,5.05
2022-12-03T18:07:13.783Z,5.12
2022-12-03T18:09:16.674Z,5.13
2022-12-03T18:11:19.678Z,5.16
2022-12-03T18:13:22.638Z,5.08
2022-12-03T18:15:25.520Z,5.04
2022-12-03T18:17:28.509Z,5.09
2022-12-03T18:19:32.670Z,5.06
2022-12-03T18:21:36.395Z,5.00
2022-12-03T18:23:39.676Z,5.04
2022-12-03T18:25:43.028Z,5.11
2022-12-03T18:27:46.900Z,5.08
2022-12-03T18:29:50.020Z,5.24
2022-12-03T18:31:52.986Z,5.16
2022-12-03T18:33:55.927Z,5.01
2022-12-03T18:36:00.233Z,4.98
2022-12-03T18:38:03.099Z,4.98
2022-12-03T18:40:12.844Z,5.03
2022-12-03T18:42:18.705Z,4.82
2022-12-03T18:44:21.648Z,4.89
2022-12-03T18:46:51.755Z,4.72
2022-12-03T18:48:49.257Z,4.86
2022-12-03T18:50:52.079Z,4.75
2022-12-03T18:52:56.251Z,4.72
2022-12-03T18:54:59.088Z,4.72
2022-12-03T18:57:01.949Z,4.86
2022-12-03T18:59:07.599Z,5.24
2022-12-03T19:01:15.992Z,5.27
2022-12-03T19:03:19.212Z,5.26
2022-12-03T19:05:22.177Z,5.14
2022-12-03T19:07:25.437Z,5.07
2022-12-03T19:09:29.705Z,4.96
2022-12-03T19:11:34.708Z,4.85
2022-12-03T19:13:37.611Z,4.91
2022-12-03T19:15:40.506Z,4.93
2022-12-03T19:17:43.354Z,4.80
2022-12-03T19:19:46.404Z,4.79
2022-12-03T19:21:49.294Z,4.79
2022-12-03T19:24:22.635Z,4.83
2022-12-03T19:26:16.640Z,4.84
2022-12-03T19:28:19.721Z,4.75
2022-12-03T19:30:22.909Z,4.84
2022-12-03T19:32:26.909Z,4.93
2022-12-03T19:34:31.900Z,4.92
2022-12-03T19:36:34.588Z,4.96
2022-12-03T19:38:38.789Z,4.94
2022-12-03T19:40:41.570Z,4.92
2022-12-03T19:42:45.771Z,4.90
2022-12-03T19:44:48.603Z,4.92
2022-12-03T19:46:52.784Z,5.03
2022-12-03T19:48:55.888Z,4.93
2022-12-03T19:51:19.762Z,5.03
2022-12-03T19:53:22.551Z,4.79
2022-12-03T19:55:25.408Z,4.78
2022-12-03T19:57:28.262Z,4.73
2022-12-03T19:59:32.416Z,4.64
2022-12-03T20:01:40.243Z,4.67
2022-12-03T20:03:44.890Z,4.63
2022-12-03T20:05:47.714Z,4.71
2022-12-03T20:07:50.707Z,4.80
2022-12-03T20:09:53.887Z,4.69
2022-12-03T20:11:56.944Z,4.65
2022-12-03T20:14:01.918Z,4.74
2022-12-03T20:16:06.981Z,4.67
2022-12-03T20:18:10.422Z,4.84
2022-12-03T20:20:13.562Z,4.87
2022-12-03T20:22:16.419Z,4.80
2022-12-03T20:24:19.298Z,4.72
2022-12-03T20:26:23.037Z,4.80
2022-12-03T20:28:26.330Z,4.94
2022-12-03T20:30:29.145Z,4.80
2022-12-03T20:32:33.331Z,4.71
2022-12-03T20:34:36.362Z,4.84
2022-12-03T20:36:39.849Z,4.78
2022-12-03T20:38:42.962Z,4.69
2022-12-03T20:40:45.812Z,4.84
2022-12-03T20:42:49.222Z,4.82
2022-12-03T20:44:52.621Z,4.81
2022-12-03T20:46:55.490Z,4.76
2022-12-03T20:49:00.123Z,4.71
2022-12-03T20:51:05.627Z,4.78
2022-12-03T20:53:24.226Z,4.71
2022-12-03T20:55:27.808Z,4.57
2022-12-03T20:57:30.582Z,4.69
2022-12-03T20:59:33.590Z,4.82
2022-12-03T21:01:38.320Z,4.81
2022-12-03T21:03:41.283Z,4.69
2022-12-03T21:05:45.605Z,4.66
2022-12-03T21:07:52.372Z,4.75
2022-12-03T21:09:55.548Z,4.80
2022-12-03T21:11:58.643Z,4.67
2022-12-03T21:14:01.632Z,4.65
2022-12-03T21:16:06.607Z,4.69
2022-12-03T21:18:10.112Z,4.58
2022-12-03T21:20:16.592Z,4.67
2022-12-03T21:22:23.575Z,4.59
2022-12-03T21:24:26.646Z,4.54
2022-12-03T21:26:29.717Z,4.44
2022-12-03T21:28:32.874Z,4.43
2022-12-03T21:30:39.004Z,4.48
2022-12-03T21:32:41.846Z,4.69
2022-12-03T21:34:44.745Z,4.78
2022-12-03T21:36:47.610Z,4.53
2022-12-03T21:38:52.692Z,4.67
2022-12-03T21:40:56.212Z,4.50
2022-12-03T21:42:59.130Z,4.49
2022-12-03T21:45:01.987Z,4.54
2022-12-03T21:47:11.971Z,4.60
2022-12-03T21:49:19.227Z,4.61
2022-12-03T21:51:22.494Z,4.51
2022-12-03T21:53:25.482Z,4.56
2022-12-03T21:55:29.736Z,4.59
2022-12-03T21:57:32.629Z,4.60
2022-12-03T21:59:35.436Z,4.61
2022-12-03T22:01:40.640Z,4.53
2022-12-03T22:03:46.919Z,4.51
2022-12-03T22:05:50.315Z,4.69
2022-12-03T22:07:53.275Z,4.48
2022-12-03T22:09:56.309Z,4.65
2022-12-03T22:12:01.494Z,4.56
2022-12-03T22:14:04.763Z,4.40
2022-12-03T22:16:09.975Z,4.37
2022-12-03T22:18:12.900Z,4.39
2022-12-03T22:20:15.988Z,4.39
2022-12-03T22:22:19.440Z,4.37
2022-12-03T22:24:23.667Z,4.70
2022-12-03T22:26:26.424Z,4.60
2022-12-03T22:28:30.783Z,4.41
2022-12-03T22:30:33.751Z,4.50
2022-12-03T22:32:36.650Z,4.52
2022-12-03T22:34:42.711Z,4.45
2022-12-03T22:36:45.497Z,4.47
2022-12-03T22:38:48.471Z,4.41
2022-12-03T22:40:51.318Z,4.32
2022-12-03T22:42:54.191Z,4.29
2022-12-03T22:44:58.301Z,4.32
2022-12-03T22:47:01.129Z,4.24
2022-12-03T22:49:07.448Z,4.31
2022-12-03T22:51:13.244Z,4.42
2022-12-03T22:53:20.519Z,4.42
2022-12-03T22:55:23.372Z,4.34
2022-12-03T22:57:26.209Z,4.21
2022-12-03T22:59:29.094Z,4.30
2022-12-03T23:01:35.171Z,4.35
2022-12-03T23:03:38.071Z,4.26
2022-12-03T23:05:43.099Z,4.32
2022-12-03T23:07:45.981Z,4.39
2022-12-03T23:09:48.905Z,4.37
2022-12-03T23:11:51.704Z,4.18
2022-12-03T23:13:54.977Z,4.19
2022-12-03T23:15:58.274Z,4.17
2022-12-03T23:18:02.439Z,4.23
2022-12-03T23:20:05.996Z,4.09
2022-12-03T23:22:08.831Z,4.08
2022-12-03T23:24:11.681Z,4.22
2022-12-03T23:26:16.406Z,4.15
2022-12-03T23:28:19.331Z,4.29
2022-12-03T23:30:22.151Z,4.31
2022-12-03T23:32:25.226Z,4.24
2022-12-03T23:34:29.382Z,4.08
2022-12-03T23:36:34.506Z,4.14
2022-12-03T23:38:37.348Z,4.05
2022-12-03T23:40:44.739Z,3.96
2022-12-03T23:42:50.658Z,3.98
2022-12-03T23:44:53.421Z,4.09
2022-12-03T23:46:56.336Z,4.14
2022-12-03T23:48:59.875Z,3.99
2022-12-03T23:51:07.935Z,3.90
2022-12-03T23:53:10.870Z,3.90
2022-12-03T23:55:13.756Z,4.07
2022-12-03T23:57:18.194Z,4.12
2022-12-03T23:59:21.008Z,4.08
